createdAt,value
2018-11-03T00:01:50.411Z,12.60
2018-11-03T00:04:18.750Z,12.60
2018-11-03T00:06:47.208Z,12.60
2018-11-03T00:09:15.603Z,12.50
2018-11-03T00:11:43.977Z,12.50
2018-11-03T00:14:12.412Z,12.50
2018-11-03T00:16:40.932Z,12.50
2018-11-03T00:19:09.347Z,12.40
2018-11-03T00:21:37.666Z,12.40
2018-11-03T00:24:06.012Z,12.40
2018-11-03T00:26:34.473Z,12.40
2018-11-03T00:29:02.866Z,12.40
2018-11-03T00:31:31.269Z,12.40
2018-11-03T00:33:59.625Z,12.40
2018-11-03T00:36:28.105Z,12.30
2018-11-03T00:38:56.506Z,12.30
2018-11-03T00:41:24.904Z,12.20
2018-11-03T00:43:53.383Z,12.10
2018-11-03T00:46:21.659Z,12.10
2018-11-03T00:48:49.985Z,12.10
2018-11-03T00:51:18.381Z,12.00
2018-11-03T00:53:46.680Z,11.90
2018-11-03T00:56:15.012Z,11.90
2018-11-03T00:58:43.446Z,11.90
2018-11-03T01:01:11.832Z,11.90
2018-11-03T01:03:40.204Z,11.90
2018-11-03T01:06:08.445Z,11.90
2018-11-03T01:08:36.848Z,11.80
2018-11-03T01:11:05.352Z,11.80
2018-11-03T01:13:33.622Z,11.80
2018-11-03T01:16:02.174Z,11.80
2018-11-03T01:18:30.643Z,11.90
2018-11-03T01:20:59.110Z,11.90
2018-11-03T01:23:27.574Z,11.90
2018-11-03T01:25:55.827Z,11.80
2018-11-03T01:28:24.914Z,11.80
2018-11-03T01:30:53.250Z,11.90
2018-11-03T01:33:21.546Z,11.90
2018-11-03T01:35:49.846Z,12.00
2018-11-03T01:38:18.141Z,12.00
2018-11-03T01:40:46.418Z,12.00
2018-11-03T01:43:14.747Z,12.00
2018-11-03T01:45:43.223Z,12.10
2018-11-03T01:48:11.528Z,12.00
2018-11-03T01:50:39.811Z,12.00
2018-11-03T01:53:08.187Z,12.00
2018-11-03T01:55:36.463Z,12.00
2018-11-03T01:58:04.749Z,12.00
2018-11-03T02:00:33.187Z,12.00
2018-11-03T02:03:01.532Z,12.00
2018-11-03T02:05:29.920Z,12.00
2018-11-03T02:07:58.287Z,12.00
2018-11-03T02:10:26.637Z,12.00
2018-11-03T02:12:55.324Z,12.00
2018-11-03T02:15:23.554Z,12.00
2018-11-03T02:17:52.188Z,12.00
2018-11-03T02:20:20.448Z,12.00
2018-11-03T02:22:48.723Z,12.00
2018-11-03T02:25:16.990Z,12.00
2018-11-03T02:27:45.300Z,12.00
2018-11-03T02:30:13.673Z,12.00
2018-11-03T02:32:42.074Z,11.90
2018-11-03T02:35:11.562Z,11.80
2018-11-03T02:37:40.399Z,11.90
2018-11-03T02:40:10.362Z,11.80
2018-11-03T02:42:38.717Z,11.80
2018-11-03T02:45:08.010Z,11.80
2018-11-03T02:47:36.406Z,11.90
2018-11-03T02:50:05.864Z,11.80
2018-11-03T02:52:34.228Z,11.70
2018-11-03T02:55:02.577Z,11.70
2018-11-03T02:57:31.774Z,11.70
2018-11-03T03:00:00.299Z,11.70
2018-11-03T03:02:28.910Z,11.70
2018-11-03T03:04:57.221Z,11.70
2018-11-03T03:07:25.617Z,11.70
2018-11-03T03:09:54.030Z,11.70
2018-11-03T03:12:23.428Z,11.60
2018-11-03T03:14:52.120Z,11.70
2018-11-03T03:17:20.569Z,11.60
2018-11-03T03:19:48.918Z,11.70
2018-11-03T03:22:17.479Z,11.70
2018-11-03T03:24:45.853Z,11.70
2018-11-03T03:27:14.248Z,11.70
2018-11-03T03:29:42.796Z,11.60
2018-11-03T03:32:11.004Z,11.60
2018-11-03T03:34:39.295Z,11.70
2018-11-03T03:37:07.585Z,11.60
2018-11-03T03:39:35.949Z,11.60
2018-11-03T03:42:04.397Z,11.60
2018-11-03T03:44:33.780Z,11.50
2018-11-03T03:47:02.209Z,11.50
2018-11-03T03:49:30.508Z,11.50
2018-11-03T03:51:58.801Z,11.40
2018-11-03T03:54:27.114Z,11.30
2018-11-03T03:56:55.622Z,11.30
2018-11-03T03:59:24.063Z,11.30
2018-11-03T04:01:52.419Z,11.30
2018-11-03T04:04:20.693Z,11.40
2018-11-03T04:06:48.918Z,11.40
2018-11-03T04:09:17.237Z,11.50
2018-11-03T04:11:45.532Z,11.50
2018-11-03T04:14:13.872Z,11.50
2018-11-03T04:16:42.407Z,11.40
2018-11-03T04:19:10.813Z,11.40
2018-11-03T04:21:39.124Z,11.30
2018-11-03T04:24:07.453Z,11.30
2018-11-03T04:26:36.110Z,11.30
2018-11-03T04:29:04.342Z,11.20
2018-11-03T04:31:32.630Z,11.20
2018-11-03T04:34:00.921Z,11.10
2018-11-03T04:36:29.376Z,11.20
2018-11-03T04:38:57.712Z,11.20
2018-11-03T04:41:26.086Z,11.10
2018-11-03T04:43:54.426Z,11.00
2018-11-03T04:46:22.756Z,11.00
2018-11-03T04:48:57.311Z,11.00
2018-11-03T04:51:25.631Z,11.00
2018-11-03T04:53:53.921Z,11.00
2018-11-03T04:56:22.313Z,10.90
2018-11-03T04:58:50.681Z,10.90
2018-11-03T05:01:19.132Z,10.90
2018-11-03T05:03:47.494Z,10.90
2018-11-03T05:06:16.013Z,11.00
2018-11-03T05:08:44.708Z,11.00
2018-11-03T05:11:13.126Z,11.10
2018-11-03T05:13:41.518Z,11.10
2018-11-03T05:16:10.044Z,11.10
2018-11-03T05:18:38.367Z,11.10
2018-11-03T05:21:06.594Z,11.00
2018-11-03T05:23:35.074Z,11.00
2018-11-03T05:26:03.674Z,11.00
2018-11-03T05:28:32.042Z,11.00
2018-11-03T05:31:00.440Z,11.10
2018-11-03T05:33:28.721Z,11.10
2018-11-03T05:35:57.015Z,11.20
2018-11-03T05:38:25.345Z,11.30
2018-11-03T05:40:53.700Z,11.40
2018-11-03T05:43:22.213Z,11.40
2018-11-03T05:45:50.684Z,11.50
2018-11-03T05:48:18.938Z,11.50
2018-11-03T05:50:47.250Z,11.40
2018-11-03T05:53:15.608Z,11.40
2018-11-03T05:55:43.962Z,11.50
2018-11-03T05:58:12.282Z,11.50
2018-11-03T06:00:40.603Z,11.50
2018-11-03T06:03:09.145Z,11.50
2018-11-03T06:05:37.545Z,11.40
2018-11-03T06:08:06.393Z,11.40
2018-11-03T06:10:34.720Z,11.50
2018-11-03T06:13:03.118Z,11.50
2018-11-03T06:15:31.525Z,11.50
2018-11-03T06:17:59.955Z,11.60
2018-11-03T06:20:28.403Z,11.60
2018-11-03T06:22:56.987Z,11.60
2018-11-03T06:25:25.718Z,11.60
2018-11-03T06:27:54.207Z,11.60
2018-11-03T06:30:22.627Z,11.60
2018-11-03T06:32:51.017Z,11.70
2018-11-03T06:35:19.364Z,11.70
2018-11-03T06:37:47.786Z,11.70
2018-11-03T06:40:16.293Z,11.70
2018-11-03T06:42:44.631Z,11.70
2018-11-03T06:45:13.029Z,11.80
2018-11-03T06:47:41.414Z,11.80
2018-11-03T06:50:12.166Z,11.80
2018-11-03T06:52:40.614Z,11.80
2018-11-03T06:55:10.137Z,11.80
2018-11-03T06:57:38.710Z,11.80
2018-11-03T07:00:08.518Z,11.80
2018-11-03T07:02:37.028Z,11.80
2018-11-03T07:05:06.290Z,11.90
2018-11-03T07:07:35.320Z,11.90
2018-11-03T07:10:11.308Z,11.90
2018-11-03T07:12:39.819Z,11.90
2018-11-03T07:15:11.222Z,11.90
2018-11-03T07:17:39.825Z,11.90
2018-11-03T07:20:09.883Z,11.90
2018-11-03T07:22:38.319Z,11.90
2018-11-03T07:25:07.181Z,11.90
2018-11-03T07:27:35.567Z,11.90
2018-11-03T07:30:05.252Z,11.90
2018-11-03T07:32:33.720Z,12.00
2018-11-03T07:35:02.823Z,12.00
2018-11-03T07:37:31.406Z,12.10
2018-11-03T07:39:59.735Z,12.10
2018-11-03T07:42:28.367Z,12.20
2018-11-03T07:44:56.910Z,12.10
2018-11-03T07:47:25.457Z,12.10
2018-11-03T07:49:54.025Z,12.10
2018-11-03T07:52:23.824Z,12.10
2018-11-03T07:54:52.434Z,12.10
2018-11-03T07:57:21.636Z,12.10
2018-11-03T07:59:51.187Z,12.00
2018-11-03T08:02:19.720Z,12.10
2018-11-03T08:04:48.104Z,12.10
2018-11-03T08:07:16.585Z,12.10
2018-11-03T08:09:45.363Z,12.10
2018-11-03T08:12:13.811Z,12.10
2018-11-03T08:14:42.332Z,12.10
2018-11-03T08:17:11.019Z,12.10
2018-11-03T08:19:39.599Z,12.10
2018-11-03T08:22:10.448Z,12.00
2018-11-03T08:24:40.231Z,12.10
2018-11-03T08:27:08.627Z,12.10
2018-11-03T08:29:37.064Z,12.10
2018-11-03T08:32:06.133Z,12.10
2018-11-03T08:34:34.757Z,12.10
2018-11-03T08:37:03.875Z,12.10
2018-11-03T08:39:42.032Z,12.20
2018-11-03T08:42:11.785Z,12.20
2018-11-03T08:44:40.182Z,12.30
2018-11-03T08:47:08.958Z,12.20
2018-11-03T08:49:37.483Z,12.10
2018-11-03T08:52:09.298Z,12.00
2018-11-03T08:54:38.367Z,12.00
2018-11-03T08:57:07.368Z,12.00
2018-11-03T08:59:35.790Z,12.00
2018-11-03T09:02:04.389Z,12.00
2018-11-03T09:04:32.829Z,12.00
2018-11-03T09:07:01.557Z,11.90
2018-11-03T09:09:29.958Z,11.90
2018-11-03T09:11:58.250Z,11.90
2018-11-03T09:14:26.621Z,11.90
2018-11-03T09:16:54.966Z,12.00
2018-11-03T09:19:23.442Z,12.00
2018-11-03T09:21:52.550Z,12.00
2018-11-03T09:24:20.930Z,12.00
2018-11-03T09:26:49.374Z,12.00
2018-11-03T09:29:18.598Z,12.10
2018-11-03T09:31:47.001Z,12.10
2018-11-03T09:34:15.416Z,12.10
2018-11-03T09:36:46.392Z,12.10
2018-11-03T09:39:15.208Z,12.20
2018-11-03T09:41:43.778Z,12.30
2018-11-03T09:44:12.002Z,12.40
2018-11-03T09:46:40.436Z,12.40
2018-11-03T09:49:08.924Z,12.40
2018-11-03T09:51:37.386Z,12.40
2018-11-03T09:54:05.743Z,12.30
2018-11-03T09:56:34.950Z,12.20
2018-11-03T09:59:03.255Z,12.20
2018-11-03T10:01:31.979Z,12.20
2018-11-03T10:04:00.417Z,12.30
2018-11-03T10:06:29.829Z,12.40
2018-11-03T10:08:58.118Z,12.40
2018-11-03T10:11:26.440Z,12.50
2018-11-03T10:13:54.987Z,12.50
2018-11-03T10:16:23.336Z,12.50
2018-11-03T10:18:51.928Z,12.60
2018-11-03T10:21:20.271Z,12.60
2018-11-03T10:23:48.591Z,12.60
2018-11-03T10:26:16.865Z,12.60
2018-11-03T10:28:45.269Z,12.60
2018-11-03T10:31:13.630Z,12.60
2018-11-03T10:33:42.774Z,12.60
2018-11-03T10:36:11.068Z,12.60
2018-11-03T10:38:39.361Z,12.60
2018-11-03T10:41:07.784Z,12.60
2018-11-03T10:43:36.142Z,12.50
2018-11-03T10:46:04.579Z,12.50
2018-11-03T10:48:33.165Z,12.50
2018-11-03T10:51:01.642Z,12.60
2018-11-03T10:53:29.945Z,12.60
2018-11-03T10:55:58.436Z,12.70
2018-11-03T10:58:26.976Z,12.90
2018-11-03T11:01:00.693Z,13.00
2018-11-03T11:03:34.483Z,13.00
2018-11-03T11:06:08.225Z,13.10
2018-11-03T11:10:43.554Z,13.10
2018-11-03T11:13:16.554Z,13.20
2018-11-03T11:15:45.125Z,13.10
2018-11-03T11:18:13.600Z,13.10
2018-11-03T11:20:42.398Z,13.10
2018-11-03T11:23:11.295Z,13.00
2018-11-03T11:25:39.801Z,13.00
2018-11-03T11:28:08.301Z,13.00
2018-11-03T11:30:38.309Z,13.10
2018-11-03T11:33:08.852Z,13.20
2018-11-03T11:35:37.632Z,13.20
2018-11-03T11:38:13.732Z,13.30
2018-11-03T11:40:42.502Z,13.30
2018-11-03T11:43:12.108Z,13.40
2018-11-03T11:45:41.031Z,13.50
2018-11-03T11:48:09.807Z,13.50
2018-11-03T11:50:38.255Z,13.60
2018-11-03T11:53:06.893Z,13.60
2018-11-03T11:55:35.343Z,13.60
2018-11-03T11:58:03.773Z,13.60
2018-11-03T12:00:34.397Z,13.50
2018-11-03T12:03:03.814Z,13.50
2018-11-03T12:05:32.200Z,13.50
2018-11-03T12:08:00.614Z,13.50
2018-11-03T12:10:29.028Z,13.50
2018-11-03T12:12:57.842Z,13.40
2018-11-03T12:15:26.309Z,13.30
2018-11-03T12:17:55.095Z,13.20
2018-11-03T12:20:26.093Z,13.30
2018-11-03T12:22:55.962Z,13.30
2018-11-03T12:25:24.454Z,13.40
2018-11-03T12:27:52.810Z,13.40
2018-11-03T12:30:21.194Z,13.50
2018-11-03T12:32:49.739Z,13.50
2018-11-03T12:35:18.094Z,13.50
2018-11-03T12:37:46.496Z,13.50
2018-11-03T12:40:16.698Z,13.50
2018-11-03T12:42:45.065Z,13.40
2018-11-03T12:45:15.222Z,13.40
2018-11-03T12:47:46.901Z,13.40
2018-11-03T12:50:18.446Z,13.40
2018-11-03T12:52:51.746Z,13.40
2018-11-03T12:55:21.337Z,13.50
2018-11-03T12:57:54.379Z,13.50
2018-11-03T13:00:23.183Z,13.60
2018-11-03T13:02:51.556Z,13.60
2018-11-03T13:05:20.046Z,13.70
2018-11-03T13:07:48.377Z,13.70
2018-11-03T13:10:16.705Z,13.70
2018-11-03T13:12:44.974Z,13.80
2018-11-03T13:15:14.436Z,13.80
2018-11-03T13:17:42.930Z,13.80
2018-11-03T13:20:14.316Z,13.80
2018-11-03T13:22:43.841Z,13.80
2018-11-03T13:25:12.863Z,13.80
2018-11-03T13:27:42.883Z,13.80
2018-11-03T13:30:13.117Z,13.80
2018-11-03T13:32:41.560Z,13.70
2018-11-03T13:35:11.235Z,13.70
2018-11-03T13:37:39.496Z,13.70
2018-11-03T13:40:08.903Z,13.60
2018-11-03T13:42:37.352Z,13.60
2018-11-03T13:45:07.965Z,13.60
2018-11-03T13:47:37.367Z,13.60
2018-11-03T13:50:11.302Z,13.50
2018-11-03T13:52:40.717Z,13.50
2018-11-03T13:55:10.620Z,13.50
2018-11-03T13:57:39.293Z,13.50
2018-11-03T14:00:09.071Z,13.60
2018-11-03T14:02:37.605Z,13.60
2018-11-03T14:05:06.712Z,13.60
2018-11-03T14:07:35.082Z,13.70
2018-11-03T14:10:03.422Z,13.70
2018-11-03T14:12:32.645Z,13.60
2018-11-03T14:15:01.084Z,13.60
2018-11-03T14:17:29.360Z,13.60
2018-11-03T14:19:57.714Z,13.60
2018-11-03T14:22:25.976Z,13.60
2018-11-03T14:24:54.481Z,13.60
2018-11-03T14:27:23.007Z,13.60
2018-11-03T14:29:53.610Z,13.60
2018-11-03T14:32:21.964Z,13.60
2018-11-03T14:34:50.845Z,13.60
2018-11-03T14:37:23.451Z,13.60
2018-11-03T14:39:53.801Z,13.60
2018-11-03T14:42:23.064Z,13.50
2018-11-03T14:44:51.567Z,13.60
2018-11-03T14:47:19.960Z,13.60
2018-11-03T14:49:48.318Z,13.60
2018-11-03T14:52:16.776Z,13.50
2018-11-03T14:54:49.742Z,13.50
2018-11-03T14:57:19.061Z,13.50
2018-11-03T14:59:47.528Z,13.60
2018-11-03T15:02:16.081Z,13.50
2018-11-03T15:04:44.567Z,13.50
2018-11-03T15:07:13.275Z,13.50
2018-11-03T15:09:41.852Z,13.50
2018-11-03T15:12:10.347Z,13.50
2018-11-03T15:14:38.761Z,13.50
2018-11-03T15:17:07.198Z,13.50
2018-11-03T15:19:36.260Z,13.40
2018-11-03T15:22:05.133Z,13.40
2018-11-03T15:24:33.599Z,13.50
2018-11-03T15:27:02.082Z,13.50
2018-11-03T15:29:30.443Z,13.50
2018-11-03T15:31:59.698Z,13.40
2018-11-03T15:34:28.629Z,13.40
2018-11-03T15:36:57.197Z,13.40
2018-11-03T15:39:25.593Z,13.40
2018-11-03T15:41:53.937Z,13.40
2018-11-03T15:44:22.364Z,13.40
2018-11-03T15:46:51.819Z,13.40
2018-11-03T15:49:20.168Z,13.40
2018-11-03T15:51:48.554Z,13.40
2018-11-03T15:54:17.237Z,13.40
2018-11-03T15:56:45.778Z,13.40
2018-11-03T15:59:15.432Z,13.40
2018-11-03T16:01:43.859Z,13.40
2018-11-03T16:04:12.880Z,13.40
2018-11-03T16:06:41.259Z,13.40
2018-11-03T16:09:11.093Z,13.40
2018-11-03T16:11:40.732Z,13.40
2018-11-03T16:14:10.835Z,13.40
2018-11-03T16:16:39.983Z,13.40
2018-11-03T16:19:09.306Z,13.40
2018-11-03T16:21:37.891Z,13.30
2018-11-03T16:24:06.343Z,13.30
2018-11-03T16:26:34.624Z,13.30
2018-11-03T16:29:03.056Z,13.30
2018-11-03T16:31:31.686Z,13.30
2018-11-03T16:34:00.546Z,13.30
2018-11-03T16:36:29.190Z,13.30
2018-11-03T16:38:57.844Z,13.30
2018-11-03T16:41:26.207Z,13.30
2018-11-03T16:43:54.653Z,13.30
2018-11-03T16:46:23.110Z,13.30
2018-11-03T16:48:53.267Z,13.30
2018-11-03T16:51:21.870Z,13.30
2018-11-03T16:53:50.433Z,13.30
2018-11-03T16:56:19.308Z,13.30
2018-11-03T16:58:47.891Z,13.20
2018-11-03T17:01:17.405Z,13.20
2018-11-03T17:03:45.664Z,13.20
2018-11-03T17:06:14.024Z,13.10
2018-11-03T17:08:42.625Z,13.10
2018-11-03T17:11:11.042Z,13.10
2018-11-03T17:13:39.454Z,13.10
2018-11-03T17:16:07.821Z,13.00
2018-11-03T17:18:36.571Z,13.00
2018-11-03T17:21:06.113Z,13.00
2018-11-03T17:23:34.521Z,13.00
2018-11-03T17:26:02.906Z,13.00
2018-11-03T17:28:31.421Z,13.00
2018-11-03T17:30:59.855Z,13.00
2018-11-03T17:33:28.356Z,13.00
2018-11-03T17:35:56.830Z,13.00
2018-11-03T17:38:25.323Z,12.90
2018-11-03T17:40:53.632Z,12.90
2018-11-03T17:43:21.973Z,12.90
2018-11-03T17:45:50.463Z,12.90
2018-11-03T17:48:18.788Z,12.90
2018-11-03T17:50:47.319Z,12.80
2018-11-03T17:53:15.744Z,12.80
2018-11-03T17:55:44.218Z,12.80
2018-11-03T17:58:12.589Z,12.80
2018-11-03T18:00:41.246Z,12.80
2018-11-03T18:03:09.624Z,12.80
2018-11-03T18:05:38.065Z,12.80
2018-11-03T18:08:06.601Z,12.80
2018-11-03T18:10:34.948Z,12.80
2018-11-03T18:13:03.817Z,12.80
2018-11-03T18:15:32.225Z,12.70
2018-11-03T18:18:00.712Z,12.70
2018-11-03T18:20:29.374Z,12.70
2018-11-03T18:22:57.740Z,12.70
2018-11-03T18:25:26.533Z,12.70
2018-11-03T18:27:55.233Z,12.70
2018-11-03T18:30:23.527Z,12.70
2018-11-03T18:32:51.977Z,12.70
2018-11-03T18:35:20.257Z,12.70
2018-11-03T18:37:48.692Z,12.70
2018-11-03T18:40:17.244Z,12.70
2018-11-03T18:42:45.798Z,12.70
2018-11-03T18:45:14.199Z,12.70
2018-11-03T18:47:42.555Z,12.70
2018-11-03T18:50:12.455Z,12.70
2018-11-03T18:52:41.008Z,12.70
2018-11-03T18:55:10.447Z,12.70
2018-11-03T18:57:39.271Z,12.70
2018-11-03T19:00:11.495Z,12.70
2018-11-03T19:02:40.790Z,12.70
2018-11-03T19:05:09.236Z,12.60
2018-11-03T19:07:37.605Z,12.60
2018-11-03T19:10:07.276Z,12.60
2018-11-03T19:12:35.905Z,12.60
2018-11-03T19:15:04.445Z,12.60
2018-11-03T19:17:36.595Z,12.60
2018-11-03T19:20:06.740Z,12.60
2018-11-03T19:22:35.532Z,12.50
2018-11-03T19:25:07.621Z,12.50
2018-11-03T19:27:36.361Z,12.50
2018-11-03T19:30:08.267Z,12.60
2018-11-03T19:32:37.016Z,12.50
2018-11-03T19:35:06.345Z,12.60
2018-11-03T19:37:35.626Z,12.60
2018-11-03T19:40:05.208Z,12.60
2018-11-03T19:42:34.109Z,12.60
2018-11-03T19:45:02.989Z,12.60
2018-11-03T19:47:32.371Z,12.60
2018-11-03T19:50:01.419Z,12.50
2018-11-03T19:52:30.408Z,12.50
2018-11-03T19:54:59.026Z,12.50
2018-11-03T19:57:27.633Z,12.50
2018-11-03T19:59:56.828Z,12.50
2018-11-03T20:02:25.262Z,12.50
2018-11-03T20:04:53.943Z,12.50
2018-11-03T20:07:22.641Z,12.40
2018-11-03T20:09:51.275Z,12.50
2018-11-03T20:12:19.745Z,12.40
2018-11-03T20:14:48.315Z,12.40
2018-11-03T20:17:17.150Z,12.40
2018-11-03T20:19:45.679Z,12.40
2018-11-03T20:22:14.618Z,12.40
2018-11-03T20:24:43.084Z,12.40
2018-11-03T20:27:11.458Z,12.40
2018-11-03T20:29:40.174Z,12.40
2018-11-03T20:32:09.526Z,12.30
2018-11-03T20:34:38.232Z,12.30
2018-11-03T20:37:07.152Z,12.30
2018-11-03T20:39:35.731Z,12.30
2018-11-03T20:42:04.527Z,12.30
2018-11-03T20:44:33.008Z,12.20
2018-11-03T20:47:01.640Z,12.20
2018-11-03T20:49:30.070Z,12.20
2018-11-03T20:51:59.902Z,12.20
2018-11-03T20:54:28.879Z,12.20
2018-11-03T20:56:57.497Z,12.20
2018-11-03T20:59:26.160Z,12.20
2018-11-03T21:01:54.854Z,12.20
2018-11-03T21:04:24.730Z,12.20
2018-11-03T21:07:00.675Z,12.20
2018-11-03T21:09:30.837Z,12.20
2018-11-03T21:11:59.438Z,12.20
2018-11-03T21:14:28.503Z,12.20
2018-11-03T21:16:57.149Z,12.10
2018-11-03T21:19:26.811Z,12.10
2018-11-03T21:21:55.315Z,12.10
2018-11-03T21:24:26.577Z,12.10
2018-11-03T21:26:56.463Z,12.00
2018-11-03T21:29:27.085Z,12.00
2018-11-03T21:31:56.897Z,12.00
2018-11-03T21:34:25.594Z,12.10
2018-11-03T21:36:54.049Z,12.00
2018-11-03T21:39:23.067Z,12.00
2018-11-03T21:41:51.603Z,12.00
2018-11-03T21:44:20.147Z,12.00
2018-11-03T21:46:49.382Z,12.00
2018-11-03T21:49:18.476Z,12.00
2018-11-03T21:51:46.975Z,12.00
2018-11-03T21:54:15.948Z,12.00
2018-11-03T21:56:44.358Z,12.00
2018-11-03T21:59:12.760Z,12.00
2018-11-03T22:01:41.204Z,12.00
2018-11-03T22:04:09.847Z,12.00
2018-11-03T22:06:39.278Z,12.00
2018-11-03T22:09:09.674Z,11.90
2018-11-03T22:11:38.324Z,11.90
2018-11-03T22:14:06.868Z,11.90
2018-11-03T22:16:35.531Z,11.90
2018-11-03T22:19:04.030Z,11.90
2018-11-03T22:21:33.728Z,11.90
2018-11-03T22:24:02.672Z,11.90
2018-11-03T22:26:33.539Z,11.90
2018-11-03T22:29:03.923Z,11.90
2018-11-03T22:31:32.353Z,11.90
2018-11-03T22:34:01.080Z,12.00
2018-11-03T22:36:30.532Z,11.90
2018-11-03T22:38:59.461Z,11.90
2018-11-03T22:41:28.373Z,11.90
2018-11-03T22:44:00.008Z,11.90
2018-11-03T22:46:28.625Z,11.90
2018-11-03T22:48:57.073Z,11.90
2018-11-03T22:51:26.336Z,11.90
2018-11-03T22:53:54.656Z,11.90
2018-11-03T22:56:23.139Z,11.90
2018-11-03T22:58:51.882Z,11.90
2018-11-03T23:01:20.234Z,11.90
2018-11-03T23:03:48.530Z,11.90
2018-11-03T23:06:16.917Z,11.90
2018-11-03T23:08:45.247Z,11.90
2018-11-03T23:11:13.523Z,11.90
2018-11-03T23:13:41.963Z,11.90
2018-11-03T23:16:10.392Z,11.90
2018-11-03T23:18:38.799Z,11.90
2018-11-03T23:21:07.293Z,11.80
2018-11-03T23:23:35.783Z,11.80
2018-11-03T23:26:04.299Z,11.80
2018-11-03T23:28:33.417Z,11.80
2018-11-03T23:31:01.721Z,11.80
2018-11-03T23:33:30.176Z,11.80
2018-11-03T23:35:58.490Z,11.80
2018-11-03T23:38:37.714Z,11.80
2018-11-03T23:41:06.101Z,11.80
2018-11-03T23:43:35.087Z,11.80
2018-11-03T23:46:03.364Z,11.80
2018-11-03T23:48:31.711Z,11.80
2018-11-03T23:51:00.113Z,11.70
2018-11-03T23:53:28.414Z,11.70
2018-11-03T23:55:56.856Z,11.70
2018-11-03T23:58:25.156Z,11.70
